createdAt,value
2023-03-20T00:00:58.294Z,62496.08
2023-03-20T00:02:01.084Z,62495.93
2023-03-20T00:03:03.409Z,62504.91
2023-03-20T00:04:06.122Z,62492.55
2023-03-20T00:05:17.900Z,62498.80
2023-03-20T00:06:25.643Z,62486.03
2023-03-20T00:07:27.694Z,62491.06
2023-03-20T00:08:29.819Z,62491.33
2023-03-20T00:09:32.058Z,62488.20
2023-03-20T00:11:53.579Z,62490.78
2023-03-20T00:12:58.189Z,62488.20
2023-03-20T00:14:03.371Z,62492.96
2023-03-20T00:15:09.298Z,62485.35
2023-03-20T00:16:11.955Z,62496.22
2023-03-20T00:17:17.723Z,62505.98
2023-03-20T00:18:22.572Z,62500.55
2023-03-20T00:19:28.057Z,62496.22
2023-03-20T00:20:31.703Z,62483.45
2023-03-20T00:21:33.784Z,62482.36
2023-03-20T00:22:35.789Z,62485.62
2023-03-20T00:23:37.672Z,62483.99
2023-03-20T00:24:40.681Z,62482.91
2023-03-20T00:26:01.369Z,62489.29
2023-03-20T00:27:03.842Z,62474.50
2023-03-20T00:28:29.333Z,62447.36
2023-03-20T00:29:32.619Z,62469.61
2023-03-20T00:30:34.784Z,62484.28
2023-03-20T00:31:38.822Z,62470.97
2023-03-20T00:32:41.497Z,62466.62
2023-03-20T00:33:44.062Z,62471.78
2023-03-20T00:34:45.948Z,62455.51
2023-03-20T00:35:49.053Z,62468.12
2023-03-20T00:36:52.731Z,62474.09
2023-03-20T00:37:57.248Z,62481.55
2023-03-20T00:38:59.196Z,62482.36
2023-03-20T00:40:01.196Z,62480.19
2023-03-20T00:41:07.034Z,62480.61
2023-03-20T00:42:12.742Z,62479.93
2023-03-20T00:43:14.804Z,62457.79
2023-03-20T00:44:23.426Z,62442.20
2023-03-20T00:45:28.647Z,62459.84
2023-03-20T00:46:34.606Z,62465.40
2023-03-20T00:47:38.528Z,62469.61
2023-03-20T00:48:41.972Z,62464.31
2023-03-20T00:49:45.929Z,62469.47
2023-03-20T00:50:48.051Z,62461.47
2023-03-20T00:51:49.956Z,62459.30
2023-03-20T00:52:52.797Z,62462.14
2023-03-20T00:53:54.692Z,62460.52
2023-03-20T00:54:56.757Z,62460.37
2023-03-20T00:56:00.966Z,62458.89
2023-03-20T00:57:06.719Z,62439.48
2023-03-20T00:58:10.911Z,62439.48
2023-03-20T00:59:19.443Z,62436.91
2023-03-20T01:00:35.571Z,62432.97
2023-03-20T01:01:37.712Z,62437.73
2023-03-20T01:02:39.699Z,62434.60
2023-03-20T01:03:42.925Z,62439.89
2023-03-20T01:04:45.534Z,62446.80
2023-03-20T01:05:49.753Z,62449.53
2023-03-20T01:06:52.635Z,62449.53
2023-03-20T01:07:55.298Z,62446.41
2023-03-20T01:08:57.188Z,62443.69
2023-03-20T01:10:00.852Z,62443.69
2023-03-20T01:11:03.276Z,62439.36
2023-03-20T01:12:06.406Z,62437.86
2023-03-20T01:13:28.581Z,62443.57
2023-03-20T01:14:32.119Z,62446.27
2023-03-20T01:15:35.516Z,62446.95
2023-03-20T01:16:38.050Z,62444.91
2023-03-20T01:17:40.192Z,62445.86
2023-03-20T01:18:43.390Z,62449.11
2023-03-20T01:19:45.802Z,62445.46
2023-03-20T01:20:49.822Z,62444.78
2023-03-20T01:21:52.825Z,62438.41
2023-03-20T01:22:54.967Z,62444.52
2023-03-20T01:23:58.377Z,62432.16
2023-03-20T01:25:00.308Z,62431.61
2023-03-20T01:26:04.213Z,62430.80
2023-03-20T01:27:15.848Z,62441.79
2023-03-20T01:28:21.280Z,62441.52
2023-03-20T01:29:25.882Z,62442.33
2023-03-20T01:30:30.839Z,62434.60
2023-03-20T01:31:33.250Z,62431.75
2023-03-20T01:32:35.634Z,62437.05
2023-03-20T01:33:37.810Z,62443.84
2023-03-20T01:34:39.700Z,62436.78
2023-03-20T01:35:42.461Z,62445.73
2023-03-20T01:36:52.148Z,62441.11
2023-03-20T01:37:55.385Z,62439.75
2023-03-20T01:38:58.371Z,62438.12
2023-03-20T01:40:00.404Z,62439.21
2023-03-20T01:41:15.487Z,62436.23
2023-03-20T01:42:17.866Z,62439.48
2023-03-20T01:43:21.952Z,62448.04
2023-03-20T01:44:30.580Z,62442.74
2023-03-20T01:45:35.901Z,62448.04
2023-03-20T01:46:39.552Z,62451.98
2023-03-20T01:47:42.242Z,62444.37
2023-03-20T01:48:54.115Z,62447.48
2023-03-20T01:50:25.853Z,62440.02
2023-03-20T01:51:30.330Z,62441.65
2023-03-20T01:52:32.466Z,62445.18
2023-03-20T01:53:34.814Z,62445.86
2023-03-20T01:54:39.150Z,62447.48
2023-03-20T01:55:43.322Z,62442.20
2023-03-20T01:56:49.423Z,62443.28
2023-03-20T01:57:53.859Z,62452.10
2023-03-20T01:58:59.552Z,62445.86
2023-03-20T02:00:05.263Z,62448.58
2023-03-20T02:01:09.766Z,62448.04
2023-03-20T02:02:15.541Z,62430.54
2023-03-20T02:03:18.638Z,62428.91
2023-03-20T02:04:24.447Z,62430.54
2023-03-20T02:05:27.279Z,62428.91
2023-03-20T02:06:30.034Z,62431.07
2023-03-20T02:07:34.426Z,62431.34
2023-03-20T02:09:50.421Z,62438.12
2023-03-20T02:10:54.126Z,62435.54
2023-03-20T02:11:58.360Z,62438.27
2023-03-20T02:13:02.658Z,62436.49
2023-03-20T02:14:06.109Z,62437.32
2023-03-20T02:15:10.502Z,62448.84
2023-03-20T02:16:15.427Z,62442.20
2023-03-20T02:17:17.935Z,62440.43
2023-03-20T02:18:19.977Z,62443.01
2023-03-20T02:19:44.171Z,62436.10
2023-03-20T02:21:08.304Z,62437.73
2023-03-20T02:22:32.625Z,62435.69
2023-03-20T02:24:12.103Z,62440.84
2023-03-20T02:25:43.984Z,62434.47
2023-03-20T02:27:03.200Z,62432.02
2023-03-20T02:28:14.739Z,62424.82
2023-03-20T02:29:18.393Z,62418.33
2023-03-20T02:30:41.345Z,62433.11
2023-03-20T02:31:56.183Z,62430.66
2023-03-20T02:33:18.544Z,62433.23
2023-03-20T02:34:57.961Z,62433.23
2023-03-20T02:36:21.051Z,62424.29
2023-03-20T02:37:33.631Z,62420.49
2023-03-20T02:38:54.529Z,62424.55
2023-03-20T02:40:33.571Z,62421.30
2023-03-20T02:41:51.182Z,62419.13
2023-03-20T02:43:06.031Z,62421.86
2023-03-20T02:44:26.437Z,62419.67
2023-03-20T02:45:38.126Z,62424.55
2023-03-20T02:47:12.346Z,62426.74
2023-03-20T02:48:41.345Z,62432.84
2023-03-20T02:50:01.739Z,62420.23
2023-03-20T02:51:10.432Z,62407.46
2023-03-20T02:52:16.195Z,62395.95
2023-03-20T02:53:25.031Z,62393.37
2023-03-20T02:54:43.105Z,62397.43
2023-03-20T02:56:08.430Z,62395.27
2023-03-20T02:57:14.376Z,62391.47
2023-03-20T02:59:37.162Z,62379.27
2023-03-20T03:00:48.804Z,62382.92
2023-03-20T03:01:54.730Z,62388.21
2023-03-20T03:03:06.297Z,62384.55
2023-03-20T03:04:10.266Z,62393.49
2023-03-20T03:05:18.645Z,62387.95
2023-03-20T03:06:31.848Z,62386.32
2023-03-20T03:07:36.273Z,62395.27
2023-03-20T03:08:41.954Z,62392.28
2023-03-20T03:09:47.792Z,62395.68
2023-03-20T03:10:56.764Z,62384.01
2023-03-20T03:12:02.538Z,62387.27
2023-03-20T03:13:07.738Z,62391.06
2023-03-20T03:14:13.528Z,62382.53
2023-03-20T03:15:30.837Z,62396.36
2023-03-20T03:16:36.740Z,62394.32
2023-03-20T03:17:43.536Z,62395.41
2023-03-20T03:18:48.249Z,62391.20
2023-03-20T03:19:53.438Z,62400.68
2023-03-20T03:21:02.082Z,62388.48
2023-03-20T03:22:05.712Z,62378.59
2023-03-20T03:23:12.603Z,62381.17
2023-03-20T03:24:40.233Z,62374.12
2023-03-20T03:25:40.098Z,62362.31
2023-03-20T03:26:43.016Z,62365.98
2023-03-20T03:27:52.367Z,62359.06
2023-03-20T03:29:00.765Z,62363.94
2023-03-20T03:30:06.658Z,62363.94
2023-03-20T03:31:15.366Z,62373.03
2023-03-20T03:32:45.452Z,62372.49
2023-03-20T03:33:51.185Z,62365.42
2023-03-20T03:34:53.904Z,62363.94
2023-03-20T03:35:59.580Z,62365.30
2023-03-20T03:37:11.825Z,62354.32
2023-03-20T03:38:23.561Z,62360.15
2023-03-20T03:39:32.376Z,62360.15
2023-03-20T03:41:04.135Z,62354.73
2023-03-20T03:42:27.583Z,62360.68
2023-03-20T03:43:51.630Z,62354.32
2023-03-20T03:45:00.229Z,62357.96
2023-03-20T03:46:06.230Z,62350.92
2023-03-20T03:47:18.239Z,62350.53
2023-03-20T03:48:23.985Z,62352.16
2023-03-20T03:49:29.782Z,62352.16
2023-03-20T03:50:38.277Z,62358.65
2023-03-20T03:51:43.969Z,62355.39
2023-03-20T03:52:48.812Z,62361.22
2023-03-20T03:53:57.580Z,62360.15
2023-03-20T03:55:12.080Z,62362.72
2023-03-20T03:56:18.078Z,62359.74
2023-03-20T03:57:23.910Z,62368.55
2023-03-20T03:58:33.328Z,62367.46
2023-03-20T03:59:41.915Z,62344.29
2023-03-20T04:00:47.832Z,62355.54
2023-03-20T04:01:51.952Z,62352.96
2023-03-20T04:02:57.055Z,62348.08
2023-03-20T04:04:04.872Z,62354.32
2023-03-20T04:05:08.870Z,62359.06
2023-03-20T04:06:11.870Z,62363.00
2023-03-20T04:07:15.021Z,62373.83
2023-03-20T04:08:17.194Z,62372.49
2023-03-20T04:09:21.369Z,62369.50
2023-03-20T04:10:24.317Z,62361.63
2023-03-20T04:11:28.299Z,62368.14
2023-03-20T04:12:36.394Z,62358.38
2023-03-20T04:13:38.461Z,62367.87
2023-03-20T04:14:40.362Z,62359.47
2023-03-20T04:15:43.617Z,62367.05
2023-03-20T04:16:47.535Z,62367.20
2023-03-20T04:17:49.679Z,62361.63
2023-03-20T04:18:53.030Z,62376.82
2023-03-20T04:19:55.378Z,62382.24
2023-03-20T04:20:57.875Z,62377.09
2023-03-20T04:21:59.802Z,62380.07
2023-03-20T04:23:01.811Z,62374.12
2023-03-20T04:24:04.594Z,62362.17
2023-03-20T04:25:10.537Z,62382.50
2023-03-20T04:26:13.382Z,62361.63
2023-03-20T04:27:15.364Z,62367.20
2023-03-20T04:28:17.245Z,62372.76
2023-03-20T04:29:19.252Z,62373.83
2023-03-20T04:30:21.462Z,62394.17
2023-03-20T04:31:23.589Z,62382.24
2023-03-20T04:32:25.732Z,62356.48
2023-03-20T04:33:28.524Z,62364.09
2023-03-20T04:34:30.416Z,62376.82
2023-03-20T04:35:32.349Z,62378.59
2023-03-20T04:36:34.856Z,62386.59
2023-03-20T04:37:37.014Z,62387.27
2023-03-20T04:38:38.991Z,62382.53
2023-03-20T04:39:40.877Z,62367.73
2023-03-20T04:40:44.399Z,62395.00
2023-03-20T04:41:49.466Z,62397.98
2023-03-20T04:42:51.548Z,62405.57
2023-03-20T04:43:55.465Z,62409.09
2023-03-20T04:44:57.582Z,62412.23
2023-03-20T04:46:00.658Z,62409.51
2023-03-20T04:47:03.990Z,62403.53
2023-03-20T04:48:06.990Z,62403.53
2023-03-20T04:49:09.002Z,62409.36
2023-03-20T04:50:11.454Z,62406.39
2023-03-20T04:51:13.512Z,62412.08
2023-03-20T04:52:15.695Z,62414.39
2023-03-20T04:53:21.002Z,62416.97
2023-03-20T04:54:23.504Z,62418.04
2023-03-20T04:55:25.546Z,62419.13
2023-03-20T04:56:27.988Z,62420.91
2023-03-20T04:57:30.000Z,62430.54
2023-03-20T04:58:31.887Z,62435.54
2023-03-20T04:59:33.910Z,62439.75
2023-03-20T05:00:38.325Z,62437.59
2023-03-20T05:01:40.252Z,62439.36
2023-03-20T05:02:43.756Z,62443.28
2023-03-20T05:03:45.979Z,62456.31
2023-03-20T05:04:48.008Z,62461.88
2023-03-20T05:05:50.233Z,62462.14
2023-03-20T05:06:52.681Z,62468.52
2023-03-20T05:07:58.097Z,62459.57
2023-03-20T05:09:00.493Z,62478.83
2023-03-20T05:10:05.942Z,62492.41
2023-03-20T05:11:08.221Z,62482.91
2023-03-20T05:12:10.575Z,62488.61
2023-03-20T05:13:12.853Z,62485.49
2023-03-20T05:14:14.887Z,62483.59
2023-03-20T05:15:17.693Z,62493.09
2023-03-20T05:16:20.236Z,62497.30
2023-03-20T05:17:25.481Z,62501.65
2023-03-20T05:18:27.864Z,62499.61
2023-03-20T05:19:31.131Z,62505.59
2023-03-20T05:20:35.488Z,62480.19
2023-03-20T05:21:37.608Z,62511.02
2023-03-20T05:22:39.560Z,62517.66
2023-03-20T05:23:41.556Z,62521.47
2023-03-20T05:24:43.671Z,62527.71
2023-03-20T05:25:45.678Z,62532.74
2023-03-20T05:26:48.110Z,62533.96
2023-03-20T05:27:50.224Z,62540.75
2023-03-20T05:28:52.347Z,62532.87
2023-03-20T05:29:54.495Z,62540.48
2023-03-20T05:30:56.895Z,62547.40
2023-03-20T05:32:00.224Z,62547.54
2023-03-20T05:33:02.315Z,62552.70
2023-03-20T05:34:05.053Z,62544.82
2023-03-20T05:35:08.034Z,62548.35
2023-03-20T05:36:10.177Z,62537.76
2023-03-20T05:37:12.119Z,62541.43
2023-03-20T05:38:14.149Z,62541.97
2023-03-20T05:39:16.270Z,62549.59
2023-03-20T05:40:18.804Z,62551.87
2023-03-20T05:41:20.799Z,62563.83
2023-03-20T05:42:22.680Z,62578.78
2023-03-20T05:43:25.095Z,62591.83
2023-03-20T05:44:27.249Z,62596.84
2023-03-20T05:45:29.976Z,62599.71
2023-03-20T05:46:31.999Z,62612.06
2023-03-20T05:47:34.194Z,62613.16
2023-03-20T05:48:36.082Z,62627.16
2023-03-20T05:49:38.083Z,62622.53
2023-03-20T05:50:40.766Z,62623.63
2023-03-20T05:51:42.658Z,62625.80
2023-03-20T05:52:48.623Z,62632.32
2023-03-20T05:53:50.684Z,62644.70
2023-03-20T05:54:52.744Z,62647.55
2023-03-20T05:55:54.677Z,62671.75
2023-03-20T05:56:59.007Z,62676.91
2023-03-20T05:58:02.751Z,62693.24
2023-03-20T05:59:06.925Z,62705.07
2023-03-20T06:00:11.041Z,62719.09
2023-03-20T06:01:13.080Z,62727.93
2023-03-20T06:02:15.777Z,62746.55
2023-03-20T06:03:18.270Z,62763.85
2023-03-20T06:04:20.307Z,62778.14
2023-03-20T06:05:22.203Z,62796.65
2023-03-20T06:06:24.614Z,62812.86
2023-03-20T06:07:26.546Z,62821.83
2023-03-20T06:08:28.517Z,62849.48
2023-03-20T06:09:30.391Z,62859.27
2023-03-20T06:10:32.718Z,62880.67
2023-03-20T06:11:37.371Z,62894.16
2023-03-20T06:12:38.665Z,62910.38
2023-03-20T06:13:44.467Z,62925.90
2023-03-20T06:14:46.386Z,62944.05
2023-03-20T06:15:48.415Z,62957.94
2023-03-20T06:16:52.515Z,62961.21
2023-03-20T06:17:55.638Z,62970.49
2023-03-20T06:18:57.554Z,62983.46
2023-03-20T06:19:59.559Z,62992.60
2023-03-20T06:21:01.572Z,62993.95
2023-03-20T06:22:04.133Z,62998.44
2023-03-20T06:23:06.838Z,63020.13
2023-03-20T06:24:08.795Z,63028.57
2023-03-20T06:25:10.693Z,63041.41
2023-03-20T06:26:12.805Z,63053.55
2023-03-20T06:27:15.018Z,63063.80
2023-03-20T06:28:17.072Z,63076.06
2023-03-20T06:29:19.014Z,63085.62
2023-03-20T06:30:21.068Z,63097.63
2023-03-20T06:31:25.624Z,63104.75
2023-03-20T06:32:27.606Z,63106.39
2023-03-20T06:33:29.494Z,63117.98
2023-03-20T06:34:31.566Z,63126.17
2023-03-20T06:35:33.790Z,63134.23
2023-03-20T06:36:36.893Z,63147.48
2023-03-20T06:37:39.328Z,63158.29
2023-03-20T06:38:41.351Z,63167.57
2023-03-20T06:39:43.686Z,63167.57
2023-03-20T06:40:46.070Z,63178.51
2023-03-20T06:41:47.965Z,63177.54
2023-03-20T06:42:50.006Z,63178.62
2023-03-20T06:43:52.270Z,63194.89
2023-03-20T06:44:54.454Z,63209.52
2023-03-20T06:45:56.478Z,63210.20
2023-03-20T06:46:58.787Z,63221.81
2023-03-20T06:48:00.859Z,63233.84
2023-03-20T06:49:04.305Z,63197.09
2023-03-20T06:50:09.147Z,63227.82
2023-03-20T06:51:11.109Z,63249.69
2023-03-20T06:52:18.751Z,63262.69
2023-03-20T06:53:21.688Z,63282.25
2023-03-20T06:54:23.599Z,63285.24
2023-03-20T06:55:25.623Z,63300.31
2023-03-20T06:56:27.641Z,63285.24
2023-03-20T06:57:30.988Z,63274.18
2023-03-20T06:58:35.037Z,63301.52
2023-03-20T06:59:37.128Z,63312.16
2023-03-20T07:00:39.246Z,63332.70
2023-03-20T07:01:42.036Z,63339.52
2023-03-20T07:02:44.124Z,63357.02
2023-03-20T07:03:47.062Z,63351.68
2023-03-20T07:04:50.174Z,63354.60
2023-03-20T07:05:52.211Z,63361.84
2023-03-20T07:06:54.981Z,63354.17
2023-03-20T07:07:58.294Z,63342.56
2023-03-20T07:09:01.075Z,63347.05
2023-03-20T07:10:04.626Z,63347.60
2023-03-20T07:11:07.388Z,63335.45
2023-03-20T07:12:13.128Z,63336.79
2023-03-20T07:13:15.085Z,63345.54
2023-03-20T07:14:37.791Z,63359.39
2023-03-20T07:15:43.880Z,63349.91
2023-03-20T07:16:43.888Z,63368.58
2023-03-20T07:17:46.635Z,63342.80
2023-03-20T07:18:48.784Z,63368.82
2023-03-20T07:19:50.803Z,63374.96
2023-03-20T07:20:55.493Z,63367.44
2023-03-20T07:21:59.992Z,63385.92
2023-03-20T07:23:02.166Z,63403.46
2023-03-20T07:24:04.348Z,63403.33
2023-03-20T07:25:08.062Z,63413.99
2023-03-20T07:26:11.949Z,63313.26
2023-03-20T07:27:14.676Z,63309.30
2023-03-20T07:28:16.850Z,63422.08
2023-03-20T07:29:18.729Z,63422.08
2023-03-20T07:30:20.849Z,63442.88
2023-03-20T07:31:25.748Z,63409.36
2023-03-20T07:32:27.734Z,63452.75
2023-03-20T07:33:29.808Z,63475.08
2023-03-20T07:34:31.704Z,63485.74
2023-03-20T07:35:33.974Z,63499.31
2023-03-20T07:36:36.255Z,63487.80
2023-03-20T07:37:39.495Z,63500.52
2023-03-20T07:38:41.627Z,63512.16
2023-03-20T07:39:43.715Z,63507.66
2023-03-20T07:40:46.040Z,63512.04
2023-03-20T07:41:48.243Z,63523.12
2023-03-20T07:42:50.233Z,63528.36
2023-03-20T07:43:52.597Z,63524.63
2023-03-20T07:44:54.554Z,63530.13
2023-03-20T07:45:56.679Z,63537.80
2023-03-20T07:46:58.949Z,63539.21
2023-03-20T07:48:02.064Z,63538.90
2023-03-20T07:49:04.111Z,63553.04
2023-03-20T07:50:08.294Z,63541.52
2023-03-20T07:51:10.982Z,63538.90
2023-03-20T07:52:13.426Z,63546.56
2023-03-20T07:53:15.478Z,63539.31
2023-03-20T07:54:17.905Z,63529.57
2023-03-20T07:55:20.084Z,63521.91
2023-03-20T07:56:22.238Z,63537.12
2023-03-20T07:57:24.131Z,63538.23
2023-03-20T07:58:26.135Z,63541.52
2023-03-20T07:59:28.011Z,63547.67
2023-03-20T08:00:30.332Z,63553.58
2023-03-20T08:01:33.065Z,63560.58
2023-03-20T08:02:35.096Z,63559.86
2023-03-20T08:03:37.219Z,63568.50
2023-03-20T08:04:40.288Z,63579.89
2023-03-20T08:05:45.834Z,63579.22
2023-03-20T08:06:47.342Z,63580.87
2023-03-20T08:07:49.549Z,63571.12
2023-03-20T08:08:52.041Z,63571.79
2023-03-20T08:09:54.598Z,63588.66
2023-03-20T08:10:56.806Z,63580.45
2023-03-20T08:11:58.715Z,63578.81
2023-03-20T08:13:00.822Z,63596.22
2023-03-20T08:14:02.800Z,63592.52
2023-03-20T08:15:06.503Z,63589.77
2023-03-20T08:16:10.159Z,63593.06
2023-03-20T08:17:16.070Z,63603.79
2023-03-20T08:18:16.902Z,63589.77
2023-03-20T08:19:19.018Z,63569.60
2023-03-20T08:20:21.002Z,63570.02
2023-03-20T08:21:23.175Z,63567.95
2023-03-20T08:22:26.166Z,63563.56
2023-03-20T08:23:28.371Z,63582.20
2023-03-20T08:24:31.858Z,63578.48
2023-03-20T08:25:35.242Z,63564.66
2023-03-20T08:26:37.672Z,63561.06
2023-03-20T08:27:41.192Z,63567.72
2023-03-20T08:28:48.389Z,63579.89
2023-03-20T08:29:47.271Z,63578.37
2023-03-20T08:30:49.687Z,63573.43
2023-03-20T08:31:52.062Z,63584.29
2023-03-20T08:32:54.143Z,63568.93
2023-03-20T08:33:56.459Z,63557.85
2023-03-20T08:34:58.424Z,63547.00
2023-03-20T08:36:00.487Z,63555.77
2023-03-20T08:37:04.264Z,63553.14
2023-03-20T08:38:06.340Z,63563.45
2023-03-20T08:39:08.715Z,63571.66
2023-03-20T08:40:12.332Z,63550.41
2023-03-20T08:41:14.946Z,63573.00
2023-03-20T08:42:17.915Z,63575.39
2023-03-20T08:43:20.771Z,63567.16
2023-03-20T08:44:23.206Z,63565.21
2023-03-20T08:45:25.466Z,63571.25
2023-03-20T08:46:28.253Z,63579.45
2023-03-20T08:47:30.965Z,63568.93
2023-03-20T08:48:34.990Z,63576.18
2023-03-20T08:49:37.263Z,63581.43
2023-03-20T08:50:39.475Z,63572.89
2023-03-20T08:51:41.474Z,63583.85
2023-03-20T08:52:44.593Z,63583.07
2023-03-20T08:53:46.923Z,63581.23
2023-03-20T08:54:48.929Z,63554.25
2023-03-20T08:55:51.913Z,63519.16
2023-03-20T08:56:54.477Z,63542.06
2023-03-20T08:57:56.642Z,63533.42
2023-03-20T08:58:59.102Z,63544.92
2023-03-20T09:00:01.231Z,63542.19
2023-03-20T09:01:05.595Z,63547.67
2023-03-20T09:02:10.307Z,63550.41
2023-03-20T09:03:18.003Z,63557.29
2023-03-20T09:04:20.171Z,63528.36
2023-03-20T09:05:22.157Z,63536.46
2023-03-20T09:06:24.275Z,63532.32
2023-03-20T09:07:26.398Z,63542.19
2023-03-20T09:08:28.449Z,63538.90
2023-03-20T09:09:30.636Z,63546.56
2023-03-20T09:10:32.993Z,63548.77
2023-03-20T09:11:37.652Z,63541.93
2023-03-20T09:12:39.731Z,63538.23
2023-03-20T09:13:42.083Z,63546.46
2023-03-20T09:14:44.844Z,63529.87
2023-03-20T09:15:48.088Z,63557.41
2023-03-20T09:16:51.661Z,63563.56
2023-03-20T09:17:53.928Z,63555.10
2023-03-20T09:18:55.975Z,63566.85
2023-03-20T09:20:01.906Z,63559.06
2023-03-20T09:21:04.758Z,63562.89
2023-03-20T09:22:06.864Z,63554.66
2023-03-20T09:23:09.214Z,63568.26
2023-03-20T09:24:11.897Z,63553.04
2023-03-20T09:25:14.588Z,63561.37
2023-03-20T09:26:16.984Z,63574.54
2023-03-20T09:27:19.854Z,63589.64
2023-03-20T09:28:21.940Z,63565.51
2023-03-20T09:29:24.367Z,63555.10
2023-03-20T09:30:26.695Z,63540.85
2023-03-20T09:31:28.903Z,63535.48
2023-03-20T09:32:31.001Z,63542.60
2023-03-20T09:33:33.283Z,63535.61
2023-03-20T09:34:35.233Z,63538.66
2023-03-20T09:35:38.802Z,63527.92
2023-03-20T09:36:41.122Z,63531.52
2023-03-20T09:37:43.474Z,63531.21
2023-03-20T09:38:45.359Z,63540.85
2023-03-20T09:39:48.239Z,63549.62
2023-03-20T09:41:02.127Z,63550.96
2023-03-20T09:43:26.967Z,63558.31
2023-03-20T09:44:36.193Z,63557.95
2023-03-20T09:45:46.199Z,63557.54
2023-03-20T09:47:18.915Z,63554.43
2023-03-20T09:48:14.848Z,63542.60
2023-03-20T09:49:23.639Z,63558.39
2023-03-20T09:50:36.057Z,63577.16
2023-03-20T09:51:48.510Z,63573.31
2023-03-20T09:53:12.196Z,63576.72
2023-03-20T09:54:27.093Z,63573.74
2023-03-20T09:55:40.965Z,63571.25
2023-03-20T09:56:43.394Z,63569.37
2023-03-20T09:57:52.724Z,63566.31
2023-03-20T09:59:00.996Z,63571.55
2023-03-20T10:00:07.431Z,63574.41
2023-03-20T10:01:13.053Z,63582.75
2023-03-20T10:02:19.236Z,63586.91
2023-03-20T10:03:42.212Z,63576.18
2023-03-20T10:04:49.317Z,63571.55
2023-03-20T10:06:00.937Z,63575.52
2023-03-20T10:07:05.218Z,63567.72
2023-03-20T10:08:15.027Z,63546.56
2023-03-20T10:09:28.571Z,63543.83
2023-03-20T10:10:41.144Z,63548.21
2023-03-20T10:12:05.919Z,63556.98
2023-03-20T10:13:32.363Z,63566.18
2023-03-20T10:14:54.791Z,63571.25
2023-03-20T10:16:15.111Z,63556.43
2023-03-20T10:17:29.848Z,63536.69
2023-03-20T10:18:35.548Z,63557.29
2023-03-20T10:19:57.403Z,63557.11
2023-03-20T10:21:12.201Z,63563.45
2023-03-20T10:22:21.189Z,63552.71
2023-03-20T10:23:27.172Z,63552.04
2023-03-20T10:24:51.240Z,63553.58
2023-03-20T10:25:59.883Z,63563.56
2023-03-20T10:27:08.303Z,63568.06
2023-03-20T10:28:26.008Z,63573.87
2023-03-20T10:29:41.629Z,63576.60
2023-03-20T10:31:08.778Z,63564.12
2023-03-20T10:33:39.409Z,63588.25
2023-03-20T10:35:08.864Z,63588.79
2023-03-20T10:36:45.411Z,63572.22
2023-03-20T10:39:05.076Z,63580.56
2023-03-20T10:40:29.230Z,63591.95
2023-03-20T10:41:35.014Z,63598.69
2023-03-20T10:42:40.739Z,63590.98
2023-03-20T10:43:45.177Z,63590.98
2023-03-20T10:44:50.985Z,63606.66
2023-03-20T10:46:03.041Z,63616.67
2023-03-20T10:47:08.849Z,63611.96
2023-03-20T10:48:26.992Z,63616.23
2023-03-20T10:49:38.566Z,63622.15
2023-03-20T10:50:47.547Z,63599.64
2023-03-20T10:51:55.620Z,63609.52
2023-03-20T10:53:00.137Z,63607.33
2023-03-20T10:54:05.916Z,63604.48
2023-03-20T10:56:41.286Z,63604.83
2023-03-20T10:57:52.863Z,63610.52
2023-03-20T10:58:56.599Z,63623.80
2023-03-20T10:59:59.254Z,63624.88
2023-03-20T11:01:01.484Z,63618.98
2023-03-20T11:02:12.234Z,63620.63
2023-03-20T11:04:27.357Z,63601.85
2023-03-20T11:05:32.743Z,63602.52
2023-03-20T11:06:38.869Z,63626.53
2023-03-20T11:07:42.167Z,63631.05
2023-03-20T11:08:48.165Z,63635.86
2023-03-20T11:10:09.054Z,63639.82
2023-03-20T11:11:11.196Z,63639.16
2023-03-20T11:12:19.412Z,63644.64
2023-03-20T11:13:36.292Z,63649.58
2023-03-20T11:14:39.175Z,63640.24
2023-03-20T11:15:41.297Z,63626.42
2023-03-20T11:16:50.303Z,63608.87
2023-03-20T11:18:05.453Z,63612.40
2023-03-20T11:19:11.057Z,63618.86
2023-03-20T11:20:14.493Z,63628.84
2023-03-20T11:21:20.278Z,63629.95
2023-03-20T11:22:25.366Z,63622.25
2023-03-20T11:23:35.649Z,63642.22
2023-03-20T11:24:41.128Z,63637.61
2023-03-20T11:25:57.996Z,63645.08
2023-03-20T11:27:15.450Z,63650.56
2023-03-20T11:28:27.488Z,63651.23
2023-03-20T11:29:31.898Z,63644.87
2023-03-20T11:30:37.980Z,63648.79
2023-03-20T11:31:41.578Z,63622.25
2023-03-20T11:32:49.468Z,63622.92
2023-03-20T11:34:16.634Z,63648.37
2023-03-20T11:35:29.030Z,63639.82
2023-03-20T11:36:33.112Z,63645.08
2023-03-20T11:37:35.962Z,63649.68
2023-03-20T11:38:45.511Z,63653.54
2023-03-20T11:40:03.532Z,63673.29
2023-03-20T11:41:09.265Z,63668.47
2023-03-20T11:42:26.290Z,63658.90
2023-03-20T11:43:28.444Z,63651.10
2023-03-20T11:44:35.418Z,63661.11
2023-03-20T11:45:44.316Z,63669.45
2023-03-20T11:46:59.575Z,63682.06
2023-03-20T11:48:04.044Z,63679.10
2023-03-20T11:49:19.040Z,63653.11
2023-03-20T11:50:33.675Z,63660.00
2023-03-20T11:51:36.822Z,63682.94
2023-03-20T11:52:39.992Z,63685.67
2023-03-20T11:53:48.579Z,63678.89
2023-03-20T11:54:54.207Z,63680.85
2023-03-20T11:56:06.165Z,63685.80
2023-03-20T11:57:11.955Z,63682.62
2023-03-20T11:58:16.686Z,63687.44
2023-03-20T11:59:22.886Z,63696.22
2023-03-20T12:00:31.813Z,63692.39
2023-03-20T12:01:43.048Z,63690.20
2023-03-20T12:02:45.305Z,63697.43
2023-03-20T12:04:11.069Z,63699.64
2023-03-20T12:05:35.340Z,63695.12
2023-03-20T12:06:44.316Z,63688.96
2023-03-20T12:07:51.257Z,63690.30
2023-03-20T12:09:02.769Z,63694.14
2023-03-20T12:10:07.865Z,63694.70
2023-03-20T12:11:22.456Z,63688.65
2023-03-20T12:12:43.478Z,63684.38
2023-03-20T12:13:48.878Z,63685.48
2023-03-20T12:15:06.916Z,63690.74
2023-03-20T12:17:49.470Z,63682.38
2023-03-20T12:19:07.010Z,63669.45
2023-03-20T12:20:42.291Z,63684.15
2023-03-20T12:21:48.531Z,63700.18
2023-03-20T12:23:11.936Z,63699.20
2023-03-20T12:25:50.732Z,63714.03
2023-03-20T12:27:02.416Z,63711.16
2023-03-20T12:28:23.556Z,63704.46
2023-03-20T12:29:31.860Z,63699.64
2023-03-20T12:31:10.656Z,63677.12
2023-03-20T12:32:16.498Z,63661.78
2023-03-20T12:33:28.144Z,63681.52
2023-03-20T12:34:36.771Z,63692.07
2023-03-20T12:35:42.524Z,63703.92
2023-03-20T12:36:48.012Z,63710.07
2023-03-20T12:37:51.877Z,63717.20
2023-03-20T12:38:54.837Z,63709.95
2023-03-20T12:40:00.528Z,63715.02
2023-03-20T12:41:24.469Z,63726.43
2023-03-20T12:42:35.750Z,63730.80
2023-03-20T12:43:44.481Z,63724.88
2023-03-20T12:44:56.103Z,63722.57
2023-03-20T12:46:08.229Z,63729.60
2023-03-20T12:47:19.772Z,63706.77
2023-03-20T12:48:40.949Z,63710.61
2023-03-20T12:50:08.290Z,63702.94
2023-03-20T12:51:39.760Z,63705.98
2023-03-20T12:52:57.570Z,63690.86
2023-03-20T12:58:22.156Z,63716.66
2023-03-20T13:00:01.748Z,63723.23
2023-03-20T13:01:10.470Z,63705.89
2023-03-20T13:02:22.628Z,63723.79
2023-03-20T13:03:43.631Z,63726.97
2023-03-20T13:04:55.415Z,63717.75
2023-03-20T13:06:16.383Z,63726.53
2023-03-20T13:08:38.534Z,63714.03
2023-03-20T13:10:01.291Z,63713.36
2023-03-20T13:11:17.180Z,63713.47
2023-03-20T13:12:41.420Z,63724.34
2023-03-20T13:13:48.192Z,63732.58
2023-03-20T13:15:14.632Z,63701.29
2023-03-20T13:17:39.442Z,63730.26
2023-03-20T13:18:54.311Z,63713.79
2023-03-20T13:20:00.124Z,63711.59
2023-03-20T13:21:06.042Z,63714.03
2023-03-20T13:22:20.946Z,63697.87